Time;durP1;ratioP1;P1;durP2;ratioP2;P2;SDS_P1;SDS_P2;PMS_P1;PMS_P2;Temp;Humidity;BMP_temperature;BMP_pressure;BME280_temperature;BME280_humidity;BME280_pressure;Samples;Min_cycle;Max_cycle;Signal;HPM_P1;HPM_P2
2023/08/14 00:03:05;;;;;;;2.42;0.70;;;;;;;;;;21090843;28;20209;-73
2023/08/14 00:13:07;;;;;;;1.85;1.00;;;;;;;;;;21092778;28;20251;-73
2023/08/14 00:23:09;;;;;;;1.30;0.70;;;;;;;;;;21114654;28;20311;-73
2023/08/14 00:33:11;;;;;;;1.92;0.80;;;;;;;;;;21103523;27;20686;-73
2023/08/14 00:43:14;;;;;;;2.53;0.82;;;;;;;;;;21057178;28;20223;-73
2023/08/14 00:53:16;;;;;;;2.08;0.93;;;;;;;;;;21102580;28;20227;-73
2023/08/14 01:03:19;;;;;;;1.58;0.80;;;;;;;;;;21120538;28;20601;-73
2023/08/14 01:13:21;;;;;;;1.35;0.60;;;;;;;;;;21144455;28;20259;-74
2023/08/14 01:23:36;;;;;;;1.20;0.70;;;;;;;;;;21106846;28;20285;-74
2023/08/14 01:33:38;;;;;;;0.95;0.75;;;;;;;;;;21095070;28;20696;-74
2023/08/14 01:43:49;;;;;;;2.05;0.80;;;24.10;99.90;;;;;;21055627;28;20266;-74
2023/08/14 01:53:51;;;;;;;1.25;0.60;;;;;;;;;;21107286;28;20226;-74
2023/08/14 02:03:53;;;;;;;0.80;0.60;;;;;;;;;;21104306;28;20579;-74
2023/08/14 02:13:56;;;;;;;1.35;0.68;;;;;;;;;;21109247;28;20738;-74
2023/08/14 02:23:57;;;;;;;0.77;0.50;;;;;;;;;;21093848;28;20285;-74
2023/08/14 02:34:01;;;;;;;1.20;0.80;;;23.70;99.90;;;;;;21136662;28;20275;-74
2023/08/14 02:44:03;;;;;;;2.47;0.73;;;;;;;;;;21076295;27;20551;-74
2023/08/14 02:54:05;;;;;;;1.40;0.65;;;;;;;;;;21081644;28;20237;-74
2023/08/14 03:04:06;;;;;;;1.83;1.13;;;;;;;;;;21117992;28;20208;-74
2023/08/14 03:14:08;;;;;;;1.85;0.80;;;;;;;;;;21089905;28;20709;-74
2023/08/14 03:24:10;;;;;;;0.88;0.60;;;;;;;;;;21091105;28;20521;-74
2023/08/14 03:34:12;;;;;;;1.75;0.75;;;;;;;;;;21093305;28;20273;-74
2023/08/14 03:44:14;;;;;;;2.35;0.63;;;;;;;;;;21109617;28;20745;-74
2023/08/14 03:54:16;;;;;;;2.00;0.88;;;;;;;;;;21098431;28;20688;-74
2023/08/14 04:04:19;;;;;;;1.00;0.70;;;;;;;;;;21117568;28;20224;-74
2023/08/14 04:14:21;;;;;;;1.63;0.70;;;;;;;;;;21106310;28;20228;-74
2023/08/14 04:24:23;;;;;;;1.90;0.80;;;;;;;;;;21131379;28;20226;-74
2023/08/14 04:34:25;;;;;;;0.98;0.70;;;;;;;;;;21109196;28;20223;-74
2023/08/14 04:44:28;;;;;;;1.05;0.68;;;;;;;;;;21129191;27;20265;-74
2023/08/14 04:54:31;;;;;;;0.82;0.57;;;;;;;;;;21092599;28;20273;-74
2023/08/14 05:04:34;;;;;;;1.55;0.80;;;;;;;;;;21117974;28;20232;-74
2023/08/14 05:14:36;;;;;;;2.25;0.90;;;;;;;;;;21102018;28;20294;-74
2023/08/14 05:24:38;;;;;;;1.23;0.80;;;;;;;;;;21121564;28;20240;-74
2023/08/14 05:34:40;;;;;;;1.98;0.85;;;;;;;;;;21082475;28;20218;-74
2023/08/14 05:44:42;;;;;;;1.65;0.85;;;;;;;;;;21061950;27;20217;-74
2023/08/14 05:54:43;;;;;;;2.15;0.93;;;;;;;;;;21106506;28;20214;-74
2023/08/14 06:04:46;;;;;;;2.50;0.73;;;;;;;;;;21114084;28;20660;-76
2023/08/14 06:14:48;;;;;;;2.47;0.70;;;;;;;;;;21098925;28;20279;-72
2023/08/14 06:24:49;;;;;;;1.63;1.10;;;;;;;;;;21100328;28;20641;-72
2023/08/14 06:34:52;;;;;;;1.02;0.60;;;;;;;;;;21118799;28;20246;-73
2023/08/14 06:44:54;;;;;;;1.23;0.75;;;;;;;;;;21104724;27;20249;-72
2023/08/14 06:54:55;;;;;;;1.30;0.70;;;;;;;;;;21149353;28;20947;-72
2023/08/14 07:04:57;;;;;;;1.85;0.98;;;;;;;;;;21101983;27;20232;-72
2023/08/14 07:15:02;;;;;;;1.33;0.80;;;;;;;;;;21086436;28;20222;-72
2023/08/14 07:25:05;;;;;;;2.28;0.93;;;25.30;99.90;;;;;;21116424;28;20227;-72
2023/08/14 07:35:07;;;;;;;1.25;0.80;;;;;;;;;;21104871;28;20299;-72
2023/08/14 07:45:09;;;;;;;1.85;0.90;;;;;;;;;;21113113;28;20694;-72
2023/08/14 07:55:11;;;;;;;1.95;1.10;;;;;;;;;;21090491;28;20273;-72
2023/08/14 08:05:13;;;;;;;2.75;0.70;;;25.80;99.90;;;;;;21108790;28;20251;-72
2023/08/14 08:15:15;;;;;;;1.70;0.75;;;;;;;;;;21090815;28;20259;-72
2023/08/14 08:25:17;;;;;;;1.98;1.02;;;;;;;;;;21096227;28;20232;-72
2023/08/14 08:35:19;;;;;;;1.60;1.02;;;;;;;;;;21086326;28;20271;-72
2023/08/14 08:45:23;;;;;;;1.35;0.73;;;;;;;;;;21108193;28;20269;-72
2023/08/14 08:55:25;;;;;;;1.33;0.90;;;;;;;;;;21103894;28;20703;-72
2023/08/14 09:05:27;;;;;;;2.03;1.05;;;;;;;;;;21075343;28;20206;-72
2023/08/14 09:15:29;;;;;;;1.27;0.90;;;;;;;;;;21064826;28;20275;-72
2023/08/14 09:25:31;;;;;;;1.25;0.75;;;;;;;;;;21098439;28;20229;-72
2023/08/14 09:35:33;;;;;;;1.08;0.70;;;;;;;;;;21067317;28;20606;-73
2023/08/14 09:45:35;;;;;;;1.90;0.90;;;;;;;;;;21083909;27;20240;-71
2023/08/14 09:55:37;;;;;;;2.58;0.90;;;26.80;99.90;;;;;;21075980;27;20262;-71
2023/08/14 10:05:40;;;;;;;1.40;0.70;;;;;;;;;;21113198;27;20220;-73
2023/08/14 10:15:45;;;;;;;1.35;0.75;;;27.00;99.90;;;;;;21033716;28;20240;-72
2023/08/14 10:25:50;;;;;;;1.88;0.70;;;27.50;99.90;;;;;;21079838;28;20241;-72
2023/08/14 10:35:54;;;;;;;0.73;0.55;;;28.10;99.90;;;;;;21078150;28;20207;-73
2023/08/14 10:45:56;;;;;;;1.23;0.70;;;;;;;;;;21068559;27;20263;-74
2023/08/14 10:55:59;;;;;;;0.80;0.60;;;;;;;;;;21102840;28;20616;-72
2023/08/14 11:06:01;;;;;;;1.15;0.70;;;;;;;;;;21089895;28;20279;-72
2023/08/14 11:16:03;;;;;;;0.85;0.50;;;;;;;;;;21105582;28;20218;-72
2023/08/14 11:26:05;;;;;;;1.65;0.75;;;;;;;;;;21102993;27;20715;-72
2023/08/14 11:36:08;;;;;;;1.10;0.70;;;;;;;;;;21071095;22;20792;-75
2023/08/14 11:46:10;;;;;;;1.95;0.63;;;;;;;;;;20953213;28;20228;-74
2023/08/14 11:56:11;;;;;;;1.17;0.60;;;;;;;;;;20881369;28;20246;-75
2023/08/14 12:06:13;;;;;;;2.00;0.80;;;;;;;;;;20983362;28;20290;-74
2023/08/14 12:16:15;;;;;;;1.05;0.60;;;;;;;;;;20950038;28;20213;-74
2023/08/14 12:26:17;;;;;;;1.50;0.80;;;;;;;;;;20963681;28;20216;-73
2023/08/14 12:36:19;;;;;;;1.52;0.60;;;;;;;;;;20964170;28;20232;-73
2023/08/14 12:46:20;;;;;;;2.25;0.70;;;;;;;;;;20984684;28;20215;-74
2023/08/14 12:56:22;;;;;;;1.02;0.70;;;;;;;;;;20950902;28;20757;-74
2023/08/14 13:06:24;;;;;;;2.38;1.00;;;;;;;;;;20976754;28;20238;-73
2023/08/14 13:16:26;;;;;;;1.10;0.70;;;;;;;;;;20961178;28;20538;-74
2023/08/14 13:26:28;;;;;;;1.42;0.77;;;;;;;;;;20950061;28;20232;-74
2023/08/14 13:36:30;;;;;;;1.15;0.82;;;;;;;;;;20896446;28;20274;-73
2023/08/14 13:46:31;;;;;;;3.28;0.98;;;;;;;;;;20914924;28;20216;-74
2023/08/14 13:56:34;;;;;;;0.95;0.65;;;;;;;;;;20903389;28;20225;-74
2023/08/14 14:06:35;;;;;;;2.05;0.80;;;;;;;;;;20920407;28;20848;-74
2023/08/14 14:16:59;;;;;;;4.22;0.80;;;29.00;99.90;;;;;;20930363;28;20216;-73
2023/08/14 14:27:01;;;;;;;2.55;0.75;;;28.80;99.90;;;;;;20895056;28;20272;-74
2023/08/14 14:37:04;;;;;;;3.10;0.88;;;;;;;;;;20943623;28;20650;-73
2023/08/14 14:47:05;;;;;;;1.90;0.80;;;;;;;;;;20911806;28;20229;-74
2023/08/14 14:57:08;;;;;;;2.30;0.93;;;;;;;;;;20958731;28;20302;-74
2023/08/14 15:07:09;;;;;;;1.48;1.00;;;;;;;;;;20920832;28;20286;-74
2023/08/14 15:17:11;;;;;;;1.95;1.00;;;;;;;;;;20925104;28;20217;-73
2023/08/14 15:27:13;;;;;;;2.33;1.05;;;;;;;;;;20931396;28;20275;-74
2023/08/14 15:37:15;;;;;;;3.38;1.20;;;;;;;;;;20961297;28;20228;-73
2023/08/14 15:47:16;;;;;;;1.85;0.88;;;;;;;;;;20920925;28;20649;-74
2023/08/14 15:57:18;;;;;;;2.63;1.52;;;;;;;;;;20892017;28;20219;-74
2023/08/14 16:07:20;;;;;;;2.63;1.35;;;;;;;;;;20913764;28;20696;-74
2023/08/14 16:17:21;;;;;;;3.67;1.30;;;;;;;;;;20975327;28;20614;-73
2023/08/14 16:27:23;;;;;;;1.77;1.00;;;;;;;;;;20995496;28;20221;-74
2023/08/14 16:37:25;;;;;;;1.83;0.85;;;;;;;;;;20911516;28;20271;-74
2023/08/14 16:47:27;;;;;;;3.20;1.00;;;;;;;;;;20910618;28;20215;-74
2023/08/14 16:57:30;;;;;;;3.28;0.90;;;;;;;;;;20899657;28;20267;-73
2023/08/14 17:07:34;;;;;;;3.35;1.15;;;;;;;;;;20958003;28;20217;-74
2023/08/14 17:17:36;;;;;;;2.72;0.98;;;;;;;;;;20971990;28;20236;-73
2023/08/14 17:27:37;;;;;;;1.45;0.90;;;;;;;;;;20971714;28;20224;-75
2023/08/14 17:37:40;;;;;;;1.40;0.80;;;;;;;;;;21052110;23;20292;-74
2023/08/14 17:47:41;;;;;;;2.45;1.10;;;;;;;;;;21079100;28;20594;-74
2023/08/14 17:57:43;;;;;;;1.65;0.90;;;;;;;;;;21026762;28;20212;-74
2023/08/14 18:07:45;;;;;;;2.35;0.85;;;;;;;;;;21032212;28;20223;-74
2023/08/14 18:17:47;;;;;;;1.40;0.77;;;;;;;;;;21017489;28;20207;-74
2023/08/14 18:27:49;;;;;;;1.90;1.02;;;;;;;;;;21045458;28;20642;-73
2023/08/14 18:37:52;;;;;;;1.40;0.80;;;;;;;;;;21104785;28;20294;-73
2023/08/14 18:47:55;;;;;;;3.17;2.03;;;;;;;;;;21112100;28;20228;-73
2023/08/14 18:57:57;;;;;;;5.38;1.10;;;;;;;;;;21101970;28;20212;-72
2023/08/14 19:07:59;;;;;;;1.50;0.88;;;28.00;99.90;;;;;;21042962;28;20214;-73
2023/08/14 19:18:01;;;;;;;1.80;1.10;;;;;;;;;;21059697;28;20251;-74
2023/08/14 19:28:03;;;;;;;3.58;1.27;;;;;;;;;;21031483;28;20607;-73
2023/08/14 19:38:06;;;;;;;3.25;1.08;;;;;;;;;;21007090;28;20330;-73
2023/08/14 19:48:08;;;;;;;2.78;1.35;;;;;;;;;;21060010;28;20291;-72
2023/08/14 19:58:09;;;;;;;2.97;1.50;;;;;;;;;;21103029;28;20881;-72
2023/08/14 20:08:11;;;;;;;5.18;1.65;;;;;;;;;;21089407;28;20648;-73
2023/08/14 20:18:14;;;;;;;2.90;1.13;;;;;;;;;;21099500;28;20219;-73
2023/08/14 20:28:16;;;;;;;2.15;1.02;;;;;;;;;;21067072;28;20238;-73
2023/08/14 20:38:18;;;;;;;2.22;1.20;;;;;;;;;;21085659;28;20249;-74
2023/08/14 20:48:20;;;;;;;3.35;1.27;;;;;;;;;;21103443;28;20239;-73
2023/08/14 20:58:22;;;;;;;2.15;1.05;;;;;;;;;;21052549;28;20270;-73
2023/08/14 21:08:25;;;;;;;1.75;1.23;;;;;;;;;;21110972;28;20294;-73
2023/08/14 21:18:28;;;;;;;2.67;1.40;;;;;;;;;;21086410;28;20233;-73
2023/08/14 21:28:30;;;;;;;2.20;1.10;;;;;;;;;;21126973;28;20283;-73
2023/08/14 21:38:32;;;;;;;1.85;1.10;;;;;;;;;;21126540;28;20222;-74
2023/08/14 21:48:33;;;;;;;1.63;1.13;;;;;;;;;;21073927;28;20276;-74
2023/08/14 21:58:36;;;;;;;2.58;1.27;;;;;;;;;;21121412;28;20275;-73
2023/08/14 22:08:38;;;;;;;2.63;1.20;;;;;;;;;;21138703;28;20255;-73
2023/08/14 22:18:40;;;;;;;3.35;1.40;;;;;;;;;;21103405;28;20601;-74
2023/08/14 22:28:42;;;;;;;2.05;1.38;;;;;;;;;;21104367;28;20293;-73
2023/08/14 22:38:44;;;;;;;4.45;1.33;;;;;;;;;;21103496;28;20227;-72
2023/08/14 22:48:46;;;;;;;2.10;1.52;;;;;;;;;;21111140;28;20260;-72
2023/08/14 22:58:48;;;;;;;2.22;1.38;;;;;;;;;;21102671;28;20207;-73
2023/08/14 23:08:50;;;;;;;2.72;1.30;;;;;;;;;;21102026;28;20690;-73
2023/08/14 23:18:51;;;;;;;1.90;1.20;;;;;;;;;;21118813;28;20593;-73
2023/08/14 23:28:53;;;;;;;1.98;1.27;;;;;;;;;;21100895;28;20227;-72
2023/08/14 23:38:55;;;;;;;2.20;1.40;;;;;;;;;;21101125;28;20218;-72
2023/08/14 23:48:57;;;;;;;2.35;1.50;;;;;;;;;;21105487;23;20756;-73
2023/08/14 23:59:00;;;;;;;1.92;1.30;;;;;;;;;;21134156;28;20273;-73
